createdAt,value
2022-09-20T00:00:15.346Z,15
2022-09-20T00:01:15.401Z,14
2022-09-20T00:02:15.372Z,10
2022-09-20T00:03:15.334Z,13
2022-09-20T00:04:15.302Z,12
2022-09-20T00:05:15.358Z,10
2022-09-20T00:06:15.292Z,14
2022-09-20T00:07:15.284Z,16
2022-09-20T00:08:15.307Z,13
2022-09-20T00:09:15.295Z,12
2022-09-20T00:10:15.402Z,15
2022-09-20T00:11:15.319Z,14
2022-09-20T00:12:15.289Z,11
2022-09-20T00:13:15.292Z,11
2022-09-20T00:14:15.303Z,12
2022-09-20T00:15:15.296Z,9
2022-09-20T00:16:15.344Z,13
2022-09-20T00:17:15.362Z,11
2022-09-20T00:18:15.381Z,13
2022-09-20T00:19:15.308Z,13
2022-09-20T00:20:15.346Z,12
2022-09-20T00:21:15.374Z,16
2022-09-20T00:22:15.369Z,16
2022-09-20T00:23:15.316Z,14
2022-09-20T00:24:15.299Z,11
2022-09-20T00:25:15.355Z,13
2022-09-20T00:26:15.410Z,12
2022-09-20T00:27:15.303Z,16
2022-09-20T00:28:15.284Z,13
2022-09-20T00:29:15.299Z,14
2022-09-20T00:30:15.315Z,12
2022-09-20T00:31:15.482Z,11
2022-09-20T00:32:15.403Z,12
2022-09-20T00:33:15.448Z,12
2022-09-20T00:34:15.334Z,15
2022-09-20T00:35:15.295Z,13
2022-09-20T00:36:15.291Z,17
2022-09-20T00:37:15.298Z,15
2022-09-20T00:38:15.407Z,9
2022-09-20T00:39:15.389Z,9
2022-09-20T00:40:15.444Z,9
2022-09-20T00:41:15.343Z,12
2022-09-20T00:42:15.427Z,15
2022-09-20T00:43:15.289Z,11
2022-09-20T00:44:15.286Z,14
2022-09-20T00:45:15.366Z,13
2022-09-20T00:46:15.354Z,13
2022-09-20T00:47:15.290Z,10
2022-09-20T00:48:15.330Z,8
2022-09-20T00:49:15.324Z,15
2022-09-20T00:50:15.306Z,9
2022-09-20T00:51:15.351Z,8
2022-09-20T00:52:15.360Z,14
2022-09-20T00:53:15.391Z,18
2022-09-20T00:54:19.980Z,15
2022-09-20T00:55:15.302Z,16
2022-09-20T00:56:15.386Z,13
2022-09-20T00:57:15.411Z,13
2022-09-20T00:58:15.286Z,17
2022-09-20T00:59:15.337Z,14
2022-09-20T01:00:15.323Z,15
2022-09-20T01:01:15.480Z,17
2022-09-20T01:02:15.397Z,20
2022-09-20T01:03:15.327Z,11
2022-09-20T01:04:15.349Z,16
2022-09-20T01:05:15.362Z,11
2022-09-20T01:06:15.364Z,10
2022-09-20T01:07:15.291Z,14
2022-09-20T01:08:15.395Z,15
2022-09-20T01:09:15.284Z,19
2022-09-20T01:10:15.363Z,14
2022-09-20T01:11:15.289Z,14
2022-09-20T01:12:15.397Z,8
2022-09-20T01:13:15.418Z,17
2022-09-20T01:14:15.295Z,14
2022-09-20T01:15:15.305Z,18
2022-09-20T01:16:15.331Z,12
2022-09-20T01:17:15.319Z,11
2022-09-20T01:18:15.286Z,13
2022-09-20T01:19:15.289Z,11
2022-09-20T01:20:15.355Z,12
2022-09-20T01:21:15.326Z,12
2022-09-20T01:22:15.358Z,15
2022-09-20T01:23:15.296Z,10
2022-09-20T01:24:15.310Z,21
2022-09-20T01:25:15.312Z,16
2022-09-20T01:26:15.291Z,12
2022-09-20T01:27:15.390Z,8
2022-09-20T01:28:15.393Z,13
2022-09-20T01:29:15.394Z,13
2022-09-20T01:30:15.324Z,12
2022-09-20T01:31:15.386Z,9
2022-09-20T01:32:15.409Z,14
2022-09-20T01:33:15.446Z,9
2022-09-20T01:34:15.500Z,14
2022-09-20T01:35:15.366Z,14
2022-09-20T01:36:15.339Z,14
2022-09-20T01:37:15.288Z,16
2022-09-20T01:38:15.379Z,14
2022-09-20T01:39:15.365Z,13
2022-09-20T01:40:15.421Z,13
2022-09-20T01:41:15.371Z,14
2022-09-20T01:42:15.363Z,13
2022-09-20T01:43:15.387Z,13
2022-09-20T01:44:15.352Z,14
2022-09-20T01:45:15.316Z,13
2022-09-20T01:46:15.358Z,16
2022-09-20T01:47:15.406Z,17
2022-09-20T01:48:15.313Z,12
2022-09-20T01:49:15.406Z,9
2022-09-20T01:50:15.344Z,15
2022-09-20T01:51:15.421Z,14
2022-09-20T01:52:15.442Z,13
2022-09-20T01:53:15.315Z,14
2022-09-20T01:54:15.301Z,13
2022-09-20T01:55:15.304Z,16
2022-09-20T01:56:15.301Z,14
2022-09-20T01:57:15.292Z,14
2022-09-20T01:58:15.290Z,14
2022-09-20T01:59:24.598Z,14
2022-09-20T02:00:15.412Z,14
2022-09-20T02:01:15.478Z,13
2022-09-20T02:02:15.349Z,11
2022-09-20T02:03:15.339Z,11
2022-09-20T02:04:15.288Z,15
2022-09-20T02:05:15.320Z,13
2022-09-20T02:06:15.335Z,14
2022-09-20T02:07:15.342Z,11
2022-09-20T02:08:15.359Z,16
2022-09-20T02:09:15.350Z,11
2022-09-20T02:10:15.305Z,14
2022-09-20T02:11:15.293Z,12
2022-09-20T02:12:15.358Z,15
2022-09-20T02:13:15.383Z,14
2022-09-20T02:14:15.323Z,15
2022-09-20T02:15:15.363Z,17
2022-09-20T02:16:15.584Z,16
2022-09-20T02:17:15.553Z,14
2022-09-20T02:18:15.549Z,16
2022-09-20T02:19:15.481Z,19
2022-09-20T02:20:15.581Z,15
2022-09-20T02:21:15.621Z,15
2022-09-20T02:22:15.635Z,16
2022-09-20T02:23:15.546Z,16
2022-09-20T02:24:15.280Z,16
2022-09-20T02:25:15.667Z,17
2022-09-20T02:26:15.358Z,16
2022-09-20T02:27:15.356Z,18
2022-09-20T02:28:15.360Z,17
2022-09-20T02:29:15.293Z,16
2022-09-20T02:30:15.360Z,17
2022-09-20T02:31:15.451Z,20
2022-09-20T02:32:15.383Z,14
2022-09-20T02:33:15.284Z,17
2022-09-20T02:34:15.290Z,14
2022-09-20T02:35:15.316Z,13
2022-09-20T02:36:15.288Z,12
2022-09-20T02:37:15.304Z,20
2022-09-20T02:38:15.362Z,14
2022-09-20T02:39:15.327Z,15
2022-09-20T02:40:15.414Z,14
2022-09-20T02:41:15.310Z,15
2022-09-20T02:42:15.357Z,18
2022-09-20T02:43:15.287Z,19
2022-09-20T02:44:15.297Z,15
2022-09-20T02:45:15.318Z,14
2022-09-20T02:46:15.432Z,15
2022-09-20T02:47:15.292Z,14
2022-09-20T02:48:15.298Z,19
2022-09-20T02:49:15.281Z,15
2022-09-20T02:50:15.319Z,15
2022-09-20T02:51:15.301Z,12
2022-09-20T02:52:15.304Z,16
2022-09-20T02:53:15.381Z,19
2022-09-20T02:54:15.338Z,15
2022-09-20T02:55:15.313Z,19
2022-09-20T02:56:15.304Z,15
2022-09-20T02:57:15.286Z,18
2022-09-20T02:58:15.290Z,16
2022-09-20T02:59:15.299Z,13
2022-09-20T03:00:15.334Z,16
2022-09-20T03:01:15.502Z,16
2022-09-20T03:02:15.382Z,19
2022-09-20T03:03:15.283Z,19
2022-09-20T03:04:15.349Z,14
2022-09-20T03:05:15.311Z,17
2022-09-20T03:06:15.296Z,17
2022-09-20T03:07:15.292Z,21
2022-09-20T03:08:15.312Z,18
2022-09-20T03:09:15.335Z,15
2022-09-20T03:10:15.350Z,18
2022-09-20T03:11:15.289Z,14
2022-09-20T03:12:15.291Z,15
2022-09-20T03:13:15.302Z,19
2022-09-20T03:14:15.294Z,17
2022-09-20T03:15:15.374Z,12
2022-09-20T03:16:15.343Z,16
2022-09-20T03:17:15.359Z,17
2022-09-20T03:18:15.373Z,22
2022-09-20T03:19:15.304Z,17
2022-09-20T03:20:15.312Z,16
2022-09-20T03:21:15.307Z,18
2022-09-20T03:22:15.297Z,19
2022-09-20T03:23:15.324Z,16
2022-09-20T03:24:15.295Z,20
2022-09-20T03:25:15.344Z,17
2022-09-20T03:26:15.329Z,13
2022-09-20T03:27:15.303Z,15
2022-09-20T03:28:15.298Z,20
2022-09-20T03:29:15.298Z,23
2022-09-20T03:30:15.370Z,17
2022-09-20T03:31:15.294Z,14
2022-09-20T03:32:15.426Z,15
2022-09-20T03:33:15.337Z,14
2022-09-20T03:34:15.308Z,17
2022-09-20T03:35:15.321Z,16
2022-09-20T03:36:15.396Z,13
2022-09-20T03:37:15.293Z,19
2022-09-20T03:38:15.419Z,16
2022-09-20T03:39:15.282Z,17
2022-09-20T03:40:15.582Z,15
2022-09-20T03:41:15.331Z,18
2022-09-20T03:42:15.300Z,23
2022-09-20T03:43:15.304Z,21
2022-09-20T03:44:15.298Z,18
2022-09-20T03:45:15.318Z,17
2022-09-20T03:46:15.415Z,18
2022-09-20T03:47:15.296Z,18
2022-09-20T03:48:15.368Z,18
2022-09-20T03:49:15.321Z,20
2022-09-20T03:50:15.310Z,18
2022-09-20T03:51:15.298Z,21
2022-09-20T03:52:15.299Z,19
2022-09-20T03:53:15.322Z,18
2022-09-20T03:54:15.294Z,19
2022-09-20T03:55:15.303Z,14
2022-09-20T03:56:15.339Z,21
2022-09-20T03:57:15.326Z,16
2022-09-20T03:58:15.286Z,18
2022-09-20T03:59:15.284Z,17
2022-09-20T04:00:15.371Z,14
2022-09-20T04:01:15.458Z,14
2022-09-20T04:02:15.325Z,17
2022-09-20T04:03:15.360Z,20
2022-09-20T04:04:15.328Z,20
2022-09-20T04:05:15.312Z,21
2022-09-20T04:06:15.289Z,23
2022-09-20T04:07:15.295Z,17
2022-09-20T04:08:15.323Z,19
2022-09-20T04:09:15.289Z,20
2022-09-20T04:10:15.309Z,22
2022-09-20T04:11:15.378Z,21
2022-09-20T04:12:15.421Z,15
2022-09-20T04:13:15.306Z,15
2022-09-20T04:14:15.669Z,19
2022-09-20T04:15:15.310Z,20
2022-09-20T04:16:15.390Z,18
2022-09-20T04:17:15.341Z,16
2022-09-20T04:18:15.281Z,19
2022-09-20T04:19:15.350Z,18
2022-09-20T04:20:15.375Z,21
2022-09-20T04:21:15.294Z,22
2022-09-20T04:22:15.392Z,21
2022-09-20T04:23:15.307Z,23
2022-09-20T04:24:15.302Z,19
2022-09-20T04:25:15.315Z,18
2022-09-20T04:26:15.294Z,22
2022-09-20T04:27:15.404Z,16
2022-09-20T04:28:15.343Z,17
2022-09-20T04:29:15.320Z,24
2022-09-20T04:30:15.311Z,19
2022-09-20T04:31:15.339Z,19
2022-09-20T04:32:15.327Z,26
2022-09-20T04:33:15.308Z,25
2022-09-20T04:34:15.291Z,35
2022-09-20T04:35:15.351Z,32
2022-09-20T04:36:15.280Z,31
2022-09-20T04:37:15.292Z,28
2022-09-20T04:38:15.387Z,50
2022-09-20T04:39:15.294Z,33
2022-09-20T04:40:15.386Z,30
2022-09-20T04:41:15.411Z,21
2022-09-20T04:42:15.353Z,24
2022-09-20T04:43:15.424Z,19
2022-09-20T04:44:15.366Z,17
2022-09-20T04:45:15.318Z,21
2022-09-20T04:46:15.405Z,20
2022-09-20T04:47:15.302Z,24
2022-09-20T04:48:15.338Z,25
2022-09-20T04:49:15.307Z,38
2022-09-20T04:50:15.384Z,38
2022-09-20T04:51:15.353Z,41
2022-09-20T04:52:15.374Z,34
2022-09-20T04:53:15.489Z,43
2022-09-20T04:54:15.288Z,29
2022-09-20T04:55:15.322Z,24
2022-09-20T04:56:15.338Z,27
2022-09-20T04:57:15.290Z,26
2022-09-20T04:58:15.332Z,24
2022-09-20T04:59:15.321Z,22
2022-09-20T05:00:15.304Z,25
2022-09-20T05:01:15.401Z,21
2022-09-20T05:02:15.416Z,23
2022-09-20T05:03:15.276Z,21
2022-09-20T05:04:15.283Z,21
2022-09-20T05:05:15.297Z,24
2022-09-20T05:06:15.450Z,25
2022-09-20T05:07:15.326Z,21
2022-09-20T05:08:15.305Z,28
2022-09-20T05:09:15.275Z,24
2022-09-20T05:10:15.410Z,24
2022-09-20T05:11:15.277Z,27
2022-09-20T05:12:15.301Z,24
2022-09-20T05:13:15.285Z,23
2022-09-20T05:14:15.322Z,28
2022-09-20T05:15:15.330Z,22
2022-09-20T05:16:15.381Z,23
2022-09-20T05:17:15.380Z,25
2022-09-20T05:18:15.338Z,18
2022-09-20T05:19:15.380Z,23
2022-09-20T05:20:15.444Z,19
2022-09-20T05:21:15.553Z,27
2022-09-20T05:22:15.479Z,20
2022-09-20T05:23:15.442Z,19
2022-09-20T05:24:15.669Z,21
2022-09-20T05:25:15.328Z,20
2022-09-20T05:26:15.386Z,21
2022-09-20T05:27:15.295Z,27
2022-09-20T05:28:15.294Z,20
2022-09-20T05:29:15.346Z,21
2022-09-20T05:30:15.341Z,23
2022-09-20T05:31:15.310Z,23
2022-09-20T05:32:15.316Z,24
2022-09-20T05:33:15.300Z,23
2022-09-20T05:34:15.292Z,22
2022-09-20T05:35:15.295Z,18
2022-09-20T05:36:15.326Z,22
2022-09-20T05:37:15.337Z,22
2022-09-20T05:38:15.332Z,19
2022-09-20T05:39:15.375Z,21
2022-09-20T05:40:15.383Z,17
2022-09-20T05:41:15.300Z,18
2022-09-20T05:42:15.290Z,17
2022-09-20T05:43:15.400Z,20
2022-09-20T05:44:15.299Z,17
2022-09-20T05:45:15.350Z,21
2022-09-20T05:46:15.423Z,18
2022-09-20T05:47:15.310Z,23
2022-09-20T05:48:15.285Z,21
2022-09-20T05:49:15.308Z,19
2022-09-20T05:50:15.291Z,21
2022-09-20T05:51:15.301Z,18
2022-09-20T05:52:15.321Z,24
2022-09-20T05:53:15.336Z,21
2022-09-20T05:54:15.300Z,18
2022-09-20T05:55:15.303Z,17
2022-09-20T05:56:15.300Z,14
2022-09-20T05:57:15.382Z,15
2022-09-20T05:58:15.298Z,22
2022-09-20T05:59:15.533Z,16
2022-09-20T06:00:15.398Z,15
2022-09-20T06:01:15.503Z,16
2022-09-20T06:02:15.375Z,23
2022-09-20T06:03:15.450Z,18
2022-09-20T06:04:15.500Z,20
2022-09-20T06:05:15.294Z,21
2022-09-20T06:06:15.344Z,16
2022-09-20T06:07:15.283Z,18
2022-09-20T06:08:15.356Z,15
2022-09-20T06:09:15.341Z,25
2022-09-20T06:10:15.293Z,20
2022-09-20T06:11:15.294Z,15
2022-09-20T06:12:15.293Z,17
2022-09-20T06:13:15.295Z,20
2022-09-20T06:14:15.358Z,19
2022-09-20T06:15:15.306Z,18
2022-09-20T06:16:15.367Z,18
2022-09-20T06:17:15.400Z,20
2022-09-20T06:18:15.291Z,19
2022-09-20T06:19:15.421Z,20
2022-09-20T06:20:15.314Z,21
2022-09-20T06:21:15.344Z,21
2022-09-20T06:22:15.329Z,24
2022-09-20T06:23:15.358Z,20
2022-09-20T06:24:15.359Z,20
2022-09-20T06:25:15.380Z,21
2022-09-20T06:26:15.303Z,24
2022-09-20T06:27:15.314Z,23
2022-09-20T06:28:15.386Z,18
2022-09-20T06:29:15.290Z,20
2022-09-20T06:30:15.314Z,18
2022-09-20T06:31:15.358Z,25
2022-09-20T06:32:15.403Z,29
2022-09-20T06:33:15.402Z,20
2022-09-20T06:34:15.289Z,20
2022-09-20T06:35:15.304Z,21
2022-09-20T06:36:15.324Z,21
2022-09-20T06:37:15.296Z,19
2022-09-20T06:38:15.292Z,21
2022-09-20T06:39:15.463Z,20
2022-09-20T06:40:15.509Z,16
2022-09-20T06:41:15.358Z,19
2022-09-20T06:42:15.451Z,20
2022-09-20T06:43:15.293Z,18
2022-09-20T06:44:15.286Z,19
2022-09-20T06:45:15.299Z,16
2022-09-20T06:46:15.319Z,17
2022-09-20T06:47:15.399Z,16
2022-09-20T06:48:15.324Z,16
2022-09-20T06:49:15.285Z,20
2022-09-20T06:50:15.310Z,18
2022-09-20T06:51:15.318Z,16
2022-09-20T06:52:15.282Z,17
2022-09-20T06:53:15.330Z,17
2022-09-20T06:54:15.347Z,20
2022-09-20T06:55:15.336Z,18
2022-09-20T06:56:15.391Z,17
2022-09-20T06:57:15.289Z,17
2022-09-20T06:58:15.368Z,19
2022-09-20T06:59:15.383Z,18
2022-09-20T07:00:15.286Z,22
2022-09-20T07:01:26.476Z,21
2022-09-20T07:02:15.451Z,13
2022-09-20T07:03:15.391Z,15
2022-09-20T07:04:15.293Z,17
2022-09-20T07:05:15.278Z,15
2022-09-20T07:06:15.324Z,22
2022-09-20T07:07:15.314Z,15
2022-09-20T07:08:15.318Z,18
2022-09-20T07:09:15.353Z,21
2022-09-20T07:10:15.431Z,16
2022-09-20T07:11:15.369Z,17
2022-09-20T07:12:15.333Z,17
2022-09-20T07:13:15.294Z,13
2022-09-20T07:14:15.288Z,14
2022-09-20T07:15:15.287Z,20
2022-09-20T07:16:15.430Z,19
2022-09-20T07:17:15.286Z,12
2022-09-20T07:18:15.349Z,19
2022-09-20T07:19:15.401Z,13
2022-09-20T07:20:20.656Z,14
2022-09-20T07:21:15.454Z,17
2022-09-20T07:22:15.502Z,18
2022-09-20T07:23:15.615Z,19
2022-09-20T07:24:15.740Z,21
2022-09-20T07:25:15.761Z,15
2022-09-20T07:26:15.780Z,18
2022-09-20T07:27:15.347Z,16
2022-09-20T07:28:15.284Z,18
2022-09-20T07:29:15.353Z,20
2022-09-20T07:30:15.396Z,17
2022-09-20T07:31:15.493Z,20
2022-09-20T07:32:15.289Z,17
2022-09-20T07:33:15.279Z,15
2022-09-20T07:34:15.365Z,15
2022-09-20T07:35:15.370Z,19
2022-09-20T07:36:15.327Z,16
2022-09-20T07:37:15.298Z,19
2022-09-20T07:38:15.378Z,20
2022-09-20T07:39:15.304Z,18
2022-09-20T07:40:15.366Z,18
2022-09-20T07:41:15.360Z,19
2022-09-20T07:42:15.436Z,20
2022-09-20T07:43:15.448Z,18
2022-09-20T07:44:15.306Z,18
2022-09-20T07:45:15.290Z,17
2022-09-20T07:46:15.382Z,18
2022-09-20T07:47:15.373Z,17
2022-09-20T07:48:15.369Z,23
2022-09-20T07:49:15.376Z,19
2022-09-20T07:50:15.322Z,14
2022-09-20T07:51:15.384Z,17
2022-09-20T07:52:15.340Z,23
2022-09-20T07:53:15.301Z,19
2022-09-20T07:54:15.306Z,18
2022-09-20T07:55:15.331Z,19
2022-09-20T07:56:15.340Z,18
2022-09-20T07:57:15.335Z,14
2022-09-20T07:58:15.331Z,20
2022-09-20T07:59:15.330Z,18
2022-09-20T08:00:15.293Z,16
2022-09-20T08:01:15.326Z,14
2022-09-20T08:02:15.382Z,17
2022-09-20T08:03:15.300Z,16
2022-09-20T08:04:15.283Z,14
2022-09-20T08:05:15.340Z,16
2022-09-20T08:06:15.398Z,19
2022-09-20T08:07:15.330Z,19
2022-09-20T08:08:15.282Z,18
2022-09-20T08:09:15.345Z,19
2022-09-20T08:10:15.284Z,12
2022-09-20T08:11:15.306Z,16
2022-09-20T08:14:15.279Z,14
2022-09-20T08:15:15.342Z,14
2022-09-20T08:16:15.339Z,13
2022-09-20T08:17:15.302Z,15
2022-09-20T08:18:15.328Z,14
2022-09-20T08:19:15.301Z,18
2022-09-20T08:20:15.343Z,14
2022-09-20T08:21:15.384Z,11
2022-09-20T08:22:15.287Z,11
2022-09-20T08:23:23.532Z,11
2022-09-20T08:24:15.316Z,13
2022-09-20T08:25:15.297Z,15
2022-09-20T08:26:15.303Z,12
2022-09-20T08:27:15.310Z,11
2022-09-20T08:28:15.343Z,16
2022-09-20T08:29:15.358Z,14
2022-09-20T08:30:15.316Z,12
2022-09-20T08:31:15.350Z,12
2022-09-20T08:32:15.300Z,18
2022-09-20T08:33:15.286Z,11
2022-09-20T08:34:15.333Z,12
2022-09-20T08:35:15.287Z,11
2022-09-20T08:36:15.372Z,12
2022-09-20T08:37:15.330Z,10
2022-09-20T08:40:15.370Z,11
2022-09-20T08:41:15.418Z,10
2022-09-20T08:42:15.395Z,9
2022-09-20T08:43:15.403Z,13
2022-09-20T08:44:15.324Z,11
2022-09-20T08:45:22.301Z,12
2022-09-20T08:46:15.456Z,14
2022-09-20T08:47:15.290Z,10
2022-09-20T08:48:15.283Z,11
2022-09-20T08:49:15.365Z,14
2022-09-20T08:50:17.672Z,11
2022-09-20T08:51:22.366Z,13
2022-09-20T08:52:15.371Z,10
2022-09-20T08:53:20.965Z,11
2022-09-20T08:54:15.319Z,9
2022-09-20T08:55:15.300Z,6
2022-09-20T08:56:15.314Z,11
2022-09-20T08:57:15.294Z,9
2022-09-20T08:58:15.321Z,9
2022-09-20T08:59:15.334Z,13
2022-09-20T09:00:15.412Z,8
2022-09-20T09:01:15.352Z,10
2022-09-20T09:02:15.394Z,11
2022-09-20T09:03:15.344Z,10
2022-09-20T09:04:15.298Z,10
2022-09-20T09:05:15.285Z,14
2022-09-20T09:06:18.478Z,9
2022-09-20T09:07:15.338Z,10
2022-09-20T09:08:15.339Z,11
2022-09-20T09:09:15.326Z,12
2022-09-20T09:10:15.417Z,8
2022-09-20T09:11:15.718Z,10
2022-09-20T09:12:15.610Z,6
2022-09-20T09:13:15.499Z,12
2022-09-20T09:14:15.309Z,13
2022-09-20T09:15:17.584Z,12
2022-09-20T09:16:22.302Z,14
2022-09-20T09:17:15.298Z,12
2022-09-20T09:18:15.302Z,13
2022-09-20T09:19:15.299Z,9
2022-09-20T09:20:15.365Z,8
2022-09-20T09:21:15.460Z,11
2022-09-20T09:22:15.357Z,10
2022-09-20T09:23:15.359Z,8
2022-09-20T09:24:15.388Z,8
2022-09-20T09:25:15.282Z,8
2022-09-20T09:26:15.302Z,5
2022-09-20T09:27:15.400Z,6
2022-09-20T09:28:15.307Z,8
2022-09-20T09:29:15.340Z,9
2022-09-20T09:30:15.283Z,9
2022-09-20T09:31:15.441Z,7
2022-09-20T09:32:15.315Z,7
2022-09-20T09:33:15.326Z,5
2022-09-20T09:34:15.283Z,8
2022-09-20T09:35:15.292Z,7
2022-09-20T09:36:15.286Z,6
2022-09-20T09:37:15.291Z,5
2022-09-20T09:38:15.454Z,9
2022-09-20T09:39:15.342Z,8
2022-09-20T09:40:15.351Z,10
2022-09-20T09:41:15.297Z,9
2022-09-20T09:42:15.296Z,6
2022-09-20T09:43:15.384Z,8
2022-09-20T09:44:15.293Z,6
2022-09-20T09:45:15.392Z,9
2022-09-20T09:46:15.728Z,6
2022-09-20T09:47:15.330Z,8
2022-09-20T09:48:15.302Z,6
2022-09-20T09:49:15.800Z,8
2022-09-20T09:50:15.434Z,7
2022-09-20T09:51:15.339Z,7
2022-09-20T09:52:15.277Z,7
2022-09-20T09:53:15.290Z,9
2022-09-20T09:54:15.359Z,6
2022-09-20T09:55:15.347Z,6
2022-09-20T09:56:15.386Z,10
2022-09-20T09:57:15.306Z,6
2022-09-20T09:58:15.301Z,10
2022-09-20T09:59:15.299Z,9
2022-09-20T10:00:21.584Z,10
2022-09-20T10:01:15.389Z,8
2022-09-20T10:02:15.525Z,7
2022-09-20T10:03:15.417Z,7
2022-09-20T10:04:15.293Z,5
2022-09-20T10:05:15.295Z,6
2022-09-20T10:06:15.337Z,8
2022-09-20T10:07:15.281Z,7
2022-09-20T10:08:15.345Z,7
2022-09-20T10:09:15.316Z,5
2022-09-20T10:10:15.361Z,7
2022-09-20T10:11:15.327Z,6
2022-09-20T10:12:15.286Z,7
2022-09-20T10:13:15.389Z,6
2022-09-20T10:14:15.312Z,6
2022-09-20T10:15:15.312Z,8
2022-09-20T10:16:15.325Z,10
2022-09-20T10:17:15.357Z,7
2022-09-20T10:18:15.344Z,6
2022-09-20T10:19:18.405Z,8
2022-09-20T10:20:15.301Z,8
2022-09-20T10:21:15.304Z,7
2022-09-20T10:22:15.334Z,6
2022-09-20T10:23:45.037Z,11
2022-09-20T10:24:15.306Z,10
2022-09-20T10:25:15.347Z,5
2022-09-20T10:26:15.358Z,7
2022-09-20T10:27:15.360Z,8
2022-09-20T10:28:15.468Z,7
2022-09-20T10:29:15.290Z,6
2022-09-20T10:30:15.379Z,9
2022-09-20T10:31:15.490Z,8
2022-09-20T10:32:15.629Z,7
2022-09-20T10:33:15.409Z,6
2022-09-20T10:34:15.337Z,8
2022-09-20T10:35:15.293Z,9
2022-09-20T10:36:15.293Z,11
2022-09-20T10:37:15.324Z,8
2022-09-20T10:38:15.339Z,5
2022-09-20T10:39:15.312Z,7
2022-09-20T10:40:15.396Z,7
2022-09-20T10:41:15.356Z,5
2022-09-20T10:42:15.462Z,8
2022-09-20T10:43:15.359Z,5
2022-09-20T10:44:15.320Z,8
2022-09-20T10:45:36.069Z,5
2022-09-20T10:46:31.466Z,8
2022-09-20T10:47:15.325Z,8
2022-09-20T10:48:15.302Z,7
2022-09-20T10:49:15.405Z,8
2022-09-20T10:50:15.293Z,8
2022-09-20T10:51:15.299Z,7
2022-09-20T10:52:15.317Z,8
2022-09-20T10:53:15.356Z,7
2022-09-20T10:54:15.403Z,6
2022-09-20T10:55:15.300Z,6
2022-09-20T10:56:15.346Z,5
2022-09-20T10:57:15.457Z,6
2022-09-20T10:58:15.309Z,10
2022-09-20T10:59:15.302Z,6
2022-09-20T11:00:15.292Z,5
2022-09-20T11:01:15.385Z,5
2022-09-20T11:02:15.489Z,3
2022-09-20T11:03:15.406Z,5
2022-09-20T11:04:15.365Z,8
2022-09-20T11:05:15.342Z,5
2022-09-20T11:06:15.296Z,6
2022-09-20T11:07:15.321Z,4
2022-09-20T11:08:15.320Z,4
2022-09-20T11:09:15.343Z,5
2022-09-20T11:10:15.357Z,6
2022-09-20T11:11:15.334Z,8
2022-09-20T11:12:15.349Z,7
2022-09-20T11:13:15.332Z,6
2022-09-20T11:14:15.302Z,5
2022-09-20T11:15:15.293Z,6
2022-09-20T11:16:15.421Z,4
2022-09-20T11:17:15.377Z,4
2022-09-20T11:18:15.292Z,6
2022-09-20T11:19:15.295Z,8
2022-09-20T11:20:15.396Z,4
2022-09-20T11:21:15.399Z,7
2022-09-20T11:22:15.306Z,6
2022-09-20T11:23:15.287Z,6
2022-09-20T11:24:15.357Z,7
2022-09-20T11:25:19.988Z,5
2022-09-20T11:26:15.277Z,6
2022-09-20T11:27:15.305Z,7
2022-09-20T11:28:15.347Z,14
2022-09-20T11:29:15.300Z,6
2022-09-20T11:30:15.295Z,7
2022-09-20T11:31:15.401Z,7
2022-09-20T11:32:15.383Z,5
2022-09-20T11:33:15.409Z,3
2022-09-20T11:34:15.330Z,5
2022-09-20T11:35:15.358Z,8
2022-09-20T11:36:15.411Z,8
2022-09-20T11:37:15.358Z,5
2022-09-20T11:38:15.392Z,5
2022-09-20T11:39:15.427Z,7
2022-09-20T11:40:15.616Z,9
2022-09-20T11:41:15.493Z,7
2022-09-20T11:42:15.359Z,8
2022-09-20T11:43:15.389Z,9
2022-09-20T11:44:15.334Z,6
2022-09-20T11:45:15.343Z,7
2022-09-20T11:46:15.467Z,6
2022-09-20T11:47:26.599Z,3
2022-09-20T11:48:15.595Z,7
2022-09-20T11:49:15.594Z,7
2022-09-20T11:50:15.504Z,7
2022-09-20T11:51:15.638Z,6
2022-09-20T11:52:15.467Z,6
2022-09-20T11:53:15.555Z,5
2022-09-20T11:54:15.311Z,8
2022-09-20T11:55:15.309Z,6
2022-09-20T11:56:15.299Z,6
2022-09-20T11:57:15.300Z,6
2022-09-20T11:58:15.294Z,4
2022-09-20T11:59:15.440Z,5
2022-09-20T12:00:15.343Z,6
2022-09-20T12:01:15.351Z,9
2022-09-20T12:02:15.477Z,5
2022-09-20T12:03:15.403Z,8
2022-09-20T12:04:31.791Z,6
2022-09-20T12:05:15.307Z,7
2022-09-20T12:06:15.385Z,6
2022-09-20T12:07:17.862Z,6
2022-09-20T12:08:15.395Z,7
2022-09-20T12:09:15.316Z,6
2022-09-20T12:10:15.304Z,6
2022-09-20T12:11:15.303Z,6
2022-09-20T12:12:15.296Z,7
2022-09-20T12:13:15.345Z,4
2022-09-20T12:14:15.333Z,5
2022-09-20T12:15:15.343Z,9
2022-09-20T12:16:15.360Z,7
2022-09-20T12:17:15.304Z,4
2022-09-20T12:18:15.301Z,8
2022-09-20T12:19:15.362Z,10
2022-09-20T12:20:19.264Z,7
2022-09-20T12:21:15.953Z,7
2022-09-20T12:22:15.389Z,7
2022-09-20T12:23:15.396Z,6
2022-09-20T12:24:15.311Z,10
2022-09-20T12:25:15.296Z,6
2022-09-20T12:26:15.298Z,11
2022-09-20T12:27:15.312Z,8
2022-09-20T12:28:15.422Z,7
2022-09-20T12:29:15.330Z,7
2022-09-20T12:30:15.342Z,10
2022-09-20T12:31:15.369Z,7
2022-09-20T12:32:15.301Z,12
2022-09-20T12:33:15.310Z,10
2022-09-20T12:34:15.306Z,8
2022-09-20T12:35:15.314Z,5
2022-09-20T12:36:15.303Z,9
2022-09-20T12:37:15.305Z,8
2022-09-20T12:38:15.380Z,7
2022-09-20T12:39:21.262Z,7
2022-09-20T12:40:15.457Z,8
2022-09-20T12:41:15.399Z,7
2022-09-20T12:42:18.506Z,8
2022-09-20T12:43:15.307Z,6
2022-09-20T12:44:15.304Z,9
2022-09-20T12:45:15.306Z,6
2022-09-20T12:46:15.396Z,9
2022-09-20T12:47:15.334Z,7
2022-09-20T12:48:15.307Z,7
2022-09-20T12:49:15.302Z,8
2022-09-20T12:50:15.364Z,7
2022-09-20T12:51:15.290Z,6
2022-09-20T12:52:15.375Z,6
2022-09-20T12:53:15.426Z,8
2022-09-20T12:54:15.533Z,7
2022-09-20T12:55:15.401Z,9
2022-09-20T12:56:15.473Z,7
2022-09-20T12:57:15.396Z,7
2022-09-20T12:58:15.556Z,12
2022-09-20T12:59:15.592Z,7
2022-09-20T13:00:15.643Z,8
2022-09-20T13:01:15.756Z,8
2022-09-20T13:02:15.578Z,7
2022-09-20T13:03:15.303Z,7
2022-09-20T13:04:15.685Z,8
2022-09-20T13:05:15.308Z,6
2022-09-20T13:06:15.359Z,11
2022-09-20T13:07:15.370Z,10
2022-09-20T13:08:15.375Z,8
2022-09-20T13:09:15.376Z,10
2022-09-20T13:10:15.352Z,5
2022-09-20T13:11:15.311Z,10
2022-09-20T13:12:15.293Z,9
2022-09-20T13:13:15.312Z,9
2022-09-20T13:14:15.304Z,8
2022-09-20T13:15:15.359Z,7
2022-09-20T13:16:15.372Z,7
2022-09-20T13:17:15.357Z,9
2022-09-20T13:18:15.377Z,7
2022-09-20T13:19:15.340Z,5
2022-09-20T13:20:15.295Z,5
2022-09-20T13:21:15.320Z,4
2022-09-20T13:22:15.361Z,6
2022-09-20T13:23:15.300Z,7
2022-09-20T13:24:15.310Z,7
2022-09-20T13:25:15.347Z,4
2022-09-20T13:26:15.290Z,7
2022-09-20T13:27:19.293Z,7
2022-09-20T13:28:20.464Z,5
2022-09-20T13:29:15.373Z,5
2022-09-20T13:30:15.323Z,6
2022-09-20T13:31:15.379Z,7
2022-09-20T13:32:15.433Z,4
2022-09-20T13:33:15.353Z,5
2022-09-20T13:34:15.308Z,5
2022-09-20T13:35:15.342Z,6
2022-09-20T13:36:15.370Z,5
2022-09-20T13:37:15.385Z,5
2022-09-20T13:38:15.371Z,5
2022-09-20T13:39:15.315Z,5
2022-09-20T13:40:15.395Z,5
2022-09-20T13:41:15.403Z,6
2022-09-20T13:42:15.327Z,5
2022-09-20T13:43:23.728Z,4
2022-09-20T13:44:15.320Z,5
2022-09-20T13:45:15.305Z,4
2022-09-20T13:46:15.375Z,3
2022-09-20T13:47:15.324Z,7
2022-09-20T13:48:15.360Z,4
2022-09-20T13:49:15.349Z,5
2022-09-20T13:50:15.337Z,4
2022-09-20T13:51:15.303Z,4
2022-09-20T13:52:15.304Z,4
2022-09-20T13:53:33.306Z,6
2022-09-20T13:54:15.357Z,4
2022-09-20T13:55:15.306Z,5
2022-09-20T13:56:15.348Z,5
2022-09-20T13:57:15.395Z,4
2022-09-20T13:58:15.314Z,5
2022-09-20T13:59:19.044Z,3
2022-09-20T14:00:15.362Z,3
2022-09-20T14:01:15.381Z,4
2022-09-20T14:02:15.361Z,3
2022-09-20T14:03:15.307Z,3
2022-09-20T14:04:15.356Z,5
2022-09-20T14:05:15.327Z,8
2022-09-20T14:06:15.313Z,8
2022-09-20T14:07:15.319Z,3
2022-09-20T14:08:15.340Z,4
2022-09-20T14:09:15.389Z,3
2022-09-20T14:10:15.300Z,4
2022-09-20T14:11:15.320Z,3
2022-09-20T14:12:15.383Z,4
2022-09-20T14:13:15.402Z,4
2022-09-20T14:14:19.867Z,3
2022-09-20T14:15:15.310Z,7
2022-09-20T14:16:15.301Z,3
2022-09-20T14:17:15.363Z,2
2022-09-20T14:18:15.305Z,4
2022-09-20T14:19:15.426Z,2
2022-09-20T14:20:15.425Z,2
2022-09-20T14:21:15.327Z,4
2022-09-20T14:22:15.455Z,4
2022-09-20T14:23:15.313Z,3
2022-09-20T14:24:15.324Z,4
2022-09-20T14:25:15.336Z,5
2022-09-20T14:26:15.377Z,4
2022-09-20T14:27:15.379Z,5
2022-09-20T14:28:15.351Z,5
2022-09-20T14:29:15.386Z,3
2022-09-20T14:30:15.306Z,3